Hamilton Island Airport, Australia

5:00 PM AEST on August 30, 2015 (GMT +1000)
Whitsunday | | Change Station
CLOSE
Current Station
Personal Weather Station
Location: Cannonvale, QUEENSLAND
Elevation: 13 ft
Nearby Weather Stations

Elev 13 ft 20.28 °S, 148.69 °E | Updated 58 seconds ago

Overcast
Overcast
74.3 °F
Feels Like 74 °F
N
2.6
Wind Variable Wind from NE
Gusts 6.3 mph

Today
High -- | Low -- °F
--% Chance of Precip.
Yesterday
High -- | Low -- °F
Precip. -- in
6:14 AM 5:53 PM
Full, 100% visible
Pressure 29.95 in
Visibility 6.2 miles
Clouds Scattered Clouds 2400 ft
Mostly Cloudy 5200 ft
Overcast 9600 ft
Heat Index 74 °F
Dew Point 70 °F
Humidity 85%
Rainfall 0.00 in
Snow Depth Not available.
UV 0 out of 12
Pollen Not available.
Air Quality Not available.
Flu Activity Not available.
METAR YBHM 300630Z AUTO 09007KT 9999 // SCT024 BKN052 OVC096 23/18 Q1014
Pressure 29.95 in
Visibility 6.2 miles
Clouds Scattered Clouds 2400 ft
Mostly Cloudy 5200 ft
Overcast 9600 ft
Heat Index 74 °F
Dew Point 70 °F
Humidity 85%
Rainfall 0.00 in
Snow Depth Not available.
UV 0 out of 12
Pollen Not available.
Air Quality Not available.
Flu Activity Not available.
METAR YBHM 300630Z AUTO 09007KT 9999 // SCT024 BKN052 OVC096 23/18 Q1014

10-Day Weather Forecast

×

Almanac

Astronomy

Aug. 30, 2015 Rise Set
Actual Time
Civil Twilight
Nautical Twilight
Astronomical Twilight
Moon
Length of Visible Light
Length of Day
Tomorrow will be .
, % of the Moon is Illuminated

Today's Extremes

Country Highs Country Lows

Community

WunderPhotos

Upload Photos

1,850,904 photos uploaded!

WunderBlogs® & News

Nearby

Air Quality

  Air Quality AQ Index Pollutant
Not available.

Snow Depth

Station Depth Elevation

Earthquake Activity

City Distance Mag. Time & Date
Minimum magnitude displayed is 2.5.

Coastal Water Temperatures

Place Temperature

Stations

Nearby Weather Stations

Station Location Temp. Windchill Dew Point Humidity Wind Precip. Elev Updated Type